Flight Track Log - Related Links

Times and Time Zones

All times are in EDT time to prevent confusion due to time zone crossing. See the SKW5604 flight status page for this flight to view local times or setup timezone preferences in your user account.

Time Position Orientation Groundspeed Altitude Reporting Facility
EDT Latitude Longitude Course Direction KTS MPH feet Rate Location/Type
Mon 03:10:10 PM 37.6364 -122.3564 21° North 162 186 900  Level Oakland Center
Mon 03:11:12 PM 37.6694 -122.3067 50° Northeast 190 219 2,800 2,000 Climbing Oakland Center
Mon 03:12:13 PM 37.7144 -122.2472 46° Northeast 222 255 5,000 2,098 Climbing Oakland Center
Mon 03:13:00 PM 37.7527 -122.3516 North  Level FlightAware Approximate
Mon 03:13:15 PM 37.7906 -122.2361 North 274 315 7,100  Level Oakland Center
Mon 03:14:00 PM 37.8963 -122.3500 North  Level FlightAware Approximate
Mon 03:14:16 PM 37.8733 -122.2356 360° North 292 336 9,700  Level Oakland Center
Mon 03:15:00 PM 38.0395 -122.3469 21° North  Level FlightAware Approximate
Mon 03:15:17 PM 37.9611 -122.2364 360° North 314 361 11,900  Level Oakland Center
Mon 03:16:19 PM 38.0486 -122.2119 12° North 325 374 14,400 2,341 Climbing Oakland Center
Mon 03:17:20 PM 38.1575 -122.1664 18° North 343 395 16,700 2,016 Climbing Oakland Center
Mon 03:18:21 PM 38.2539 -122.1267 18° North 362 417 18,500 1,659 Climbing Oakland Center
Mon 03:19:23 PM 38.3542 -122.0844 18° North 379 436 20,100 1,756 Climbing Oakland Center
Mon 03:20:24 PM 38.4594 -122.0408 18° North 395 455 22,100 1,610 Climbing Oakland Center
Mon 03:21:26 PM 38.5672 -121.9967 18° North 404 465 23,400 1,512 Climbing Oakland Center
Mon 03:22:27 PM 38.6956 -121.9433 18° North 423 487 25,200 1,525 Climbing Oakland Center
Mon 03:23:28 PM 38.8114 -121.8936 18° North 433 498 26,500 1,268 Climbing Oakland Center
Mon 03:24:30 PM 38.9314 -121.8447 18° North 446 513 27,800 1,220 Climbing Oakland Center
Mon 03:25:31 PM 39.0531 -121.7933 18° North 455 524 29,000 1,220 Climbing Oakland Center
Mon 03:26:33 PM 39.1769 -121.7394 19° North 465 535 30,300 1,073 Climbing Oakland Center
Mon 03:27:34 PM 39.3011 -121.6883 18° North 468 539 31,200 836 Climbing Oakland Center
Mon 03:28:35 PM 39.4281 -121.6333 19° North 477 549 32,000 780 Climbing Oakland Center
Mon 03:29:37 PM 39.5650 -121.5742 18° North 488 562 32,800 976 Climbing Oakland Center
Mon 03:30:38 PM 39.6928 -121.5183 19° North 489 563 34,000 585 Climbing Oakland Center
Mon 03:31:40 PM 39.8200 -121.4625 19° North 487 560 34,000  Level Oakland Center
Mon 03:32:41 PM 39.9467 -121.4086 18° North 483 556 34,000 49 Level Oakland Center
Mon 03:33:42 PM 40.0750 -121.3514 19° North 487 560 34,100 585 Climbing Oakland Center
Mon 03:34:44 PM 40.2292 -121.2864 18° North 488 562 35,200 927 Climbing Oakland Center
Mon 03:35:45 PM 40.3550 -121.2317 18° North 484 557 36,000 393 Climbing Oakland Center
Mon 03:36:46 PM 40.4833 -121.1753 18° North 485 558 36,000  Level Oakland Center
Mon 03:37:48 PM 40.6147 -121.1161 19° North 480 552 36,000  Level Oakland Center
Mon 03:38:19 PM 40.6672 -121.0936 18° North 486 559 36,000  Level Seattle Center
Mon 03:39:20 PM 40.7939 -121.0361 19° North 483 556 36,000  Level Seattle Center
Mon 03:40:21 PM 40.9225 -120.9789 19° North 488 562 36,000  Level Seattle Center
Mon 03:41:22 PM 41.0781 -120.9092 19° North 493 567 36,000  Level Seattle Center
Mon 03:42:23 PM 41.2075 -120.8522 18° North 492 566 36,000  Level Seattle Center
Mon 03:43:24 PM 41.3369 -120.7939 19° North 492 566 36,000  Level Seattle Center
Mon 03:44:25 PM 41.4700 -120.7342 19° North 496 571 36,000  Level Seattle Center
Mon 03:45:26 PM 41.6000 -120.6744 19° North 504 580 36,000  Level Seattle Center
Mon 03:46:27 PM 41.7300 -120.6131 19° North 499 574 36,000  Level Seattle Center
Mon 03:47:28 PM 41.8614 -120.5522 19° North 500 575 36,000  Level Seattle Center
Mon 03:48:29 PM 41.9933 -120.4908 19° North 502 578 36,000  Level Seattle Center
Mon 03:49:30 PM 42.1244 -120.4297 19° North 501 577 36,000  Level Seattle Center
Mon 03:50:31 PM 42.2547 -120.3692 19° North 499 574 36,000  Level Seattle Center
Mon 03:51:32 PM 42.3836 -120.3089 19° North 494 568 36,000  Level Seattle Center
Mon 03:52:33 PM 42.5403 -120.2353 19° North 497 572 36,000  Level Seattle Center
Mon 03:53:34 PM 42.6700 -120.1731 19° North 497 572 36,000  Level Seattle Center
Mon 03:54:35 PM 42.8008 -120.1108 19° North 499 574 36,000  Level Seattle Center
Mon 03:55:36 PM 42.9350 -120.0475 19° North 507 583 36,000  Level Seattle Center
Mon 03:56:37 PM 43.0675 -119.9817 20° North 508 585 36,000  Level Seattle Center
Mon 03:57:38 PM 43.2028 -119.9164 19° North 513 590 36,000  Level Seattle Center
Mon 03:58:38 PM 43.3428 -119.8481 20° North 517 595 36,000  Level Seattle Center
Mon 03:59:39 PM 43.4786 -119.7806 20° North 518 596 36,000  Level Seattle Center
Mon 04:00:40 PM 43.6144 -119.7147 19° North 519 597 36,000  Level Seattle Center
Mon 04:01:41 PM 43.7503 -119.6486 19° North 519 597 36,000  Level Seattle Center
Mon 04:02:42 PM 43.8856 -119.5822 19° North 518 596 36,000  Level Seattle Center
Mon 04:03:43 PM 44.0214 -119.5158 19° North 519 597 36,000  Level Seattle Center
Mon 04:04:44 PM 44.1542 -119.4489 20° North 513 590 36,000  Level Seattle Center
Mon 04:05:45 PM 44.3153 -119.3681 20° North 514 592 36,000  Level Seattle Center
Mon 04:06:46 PM 44.4472 -119.3014 20° North 511 588 36,000  Level Seattle Center
Mon 04:07:47 PM 44.5789 -119.2353 20° North 508 585 36,000  Level Seattle Center
Mon 04:08:48 PM 44.7117 -119.1675 20° North 510 587 36,000  Level Seattle Center
Mon 04:09:49 PM 44.8461 -119.0992 20° North 515 593 36,000  Level Seattle Center
Mon 04:10:50 PM 44.9825 -119.0297 20° North 522 601 36,000  Level Seattle Center
Mon 04:11:51 PM 45.1192 -118.9586 20° North 525 604 36,000  Level Seattle Center
Mon 04:12:52 PM 45.2547 -118.8892 20° North 523 602 36,000  Level Seattle Center
Mon 04:13:52 PM 45.3906 -118.8175 20° North 523 602 36,000  Level Seattle Center
Mon 04:14:53 PM 45.5550 -118.7311 20° North 523 602 36,000  Level Seattle Center
Mon 04:15:54 PM 45.6922 -118.6583 20° North 528 608 36,000  Level Seattle Center
Mon 04:16:55 PM 45.8286 -118.5775 22° Northeast 532 612 36,000  Level Seattle Center
Mon 04:17:56 PM 45.9561 -118.5006 23° Northeast 536 617 36,000  Level Seattle Center
Mon 04:18:57 PM 46.0931 -118.4200 22° Northeast 533 613 36,000  Level Seattle Center
Mon 04:19:58 PM 46.2300 -118.3378 23° Northeast 533 613 36,000  Level Seattle Center
Mon 04:20:59 PM 46.3669 -118.2567 22° Northeast 533 613 36,000  Level Seattle Center
Mon 04:22:00 PM 46.5031 -118.1714 23° Northeast 535 616 36,000  Level Seattle Center
Mon 04:23:01 PM 46.6672 -118.0725 22° Northeast 533 613 36,000  Level Seattle Center
Mon 04:24:02 PM 46.8033 -117.9878 23° Northeast 532 612 36,000  Level Seattle Center
Mon 04:25:03 PM 46.9397 -117.9036 23° Northeast 533 613 36,000  Level Seattle Center
Mon 04:26:04 PM 47.0769 -117.8181 23° Northeast 534 615 36,000  Level Seattle Center
Mon 04:27:05 PM 47.2150 -117.7325 23° Northeast 537 618 36,000  Level Seattle Center
Mon 04:28:06 PM 47.3528 -117.6469 23° Northeast 537 618 36,000  Level Seattle Center
Mon 04:29:07 PM 47.4922 -117.5589 23° Northeast 540 621 36,000  Level Seattle Center
Mon 04:30:08 PM 47.6319 -117.4717 23° Northeast 539 620 36,000  Level Seattle Center
Mon 04:31:09 PM 47.7717 -117.3817 23° Northeast 540 621 36,000  Level Seattle Center
Mon 04:32:10 PM 47.9108 -117.2919 23° Northeast 541 623 36,000  Level Seattle Center
Mon 04:33:11 PM 48.0475 -117.2039 23° Northeast 537 618 36,000  Level Seattle Center
Mon 04:34:12 PM 48.1833 -117.1150 24° Northeast 532 612 36,000  Level Seattle Center
Mon 04:35:13 PM 48.3192 -117.0258 24° Northeast 532 612 36,000  Level Seattle Center
Mon 04:36:14 PM 48.4547 -116.9386 23° Northeast 531 611 36,000  Level Seattle Center
Mon 04:37:15 PM 48.5900 -116.8478 24° Northeast 532 612 36,000  Level Seattle Center
Mon 04:38:16 PM 48.7258 -116.7567 24° Northeast 534 615 36,000  Level Seattle Center
Mon 04:39:19 PM 48.8667 -116.6167 33° Northeast 540 621 36,000  Level Vancouver Center
Mon 04:40:19 PM 49.0000 -116.5167 26° Northeast 540 621 36,000  Level Vancouver Center
Mon 04:41:19 PM 49.1333 -116.4000 30° Northeast 540 621 36,000  Level Vancouver Center
Mon 04:41:38 PM 49.1667 -116.4167 342° North 540 621 36,000  Level Edmonton Center
Mon 04:42:19 PM 49.2667 -116.3000 37° Northeast 540 621 36,000  Level Vancouver Center
Mon 04:43:19 PM 49.4000 -116.2000 26° Northeast 540 621 36,000  Level Vancouver Center
Mon 04:44:19 PM 49.5500 -116.0667 30° Northeast 540 621 36,000  Level Vancouver Center
Mon 04:45:19 PM 49.6667 -115.9667 29° Northeast 540 621 36,000  Level Vancouver Center
Mon 04:46:19 PM 49.8000 -115.8500 29° Northeast 530 610 36,000  Level Vancouver Center
Mon 04:47:19 PM 49.9167 -115.7500 29° Northeast 540 621 36,000 -50 Level Vancouver Center
Mon 04:48:19 PM 50.0667 -115.6167 30° Northeast 550 633 35,900 -1,500 Descending Vancouver Center
Mon 04:49:19 PM 50.2000 -115.5167 26° Northeast 550 633 33,000 -2,962 Descending Vancouver Center
Mon 04:49:38 PM 50.2167 -115.5333 327° Northwest 550 633 32,000 -2,962 Descending Edmonton Center
Mon 04:50:38 PM 50.3500 -115.4333 26° Northeast 550 633 29,100 -3,000 Descending Edmonton Center
Mon 04:51:38 PM 50.5000 -115.3000 29° Northeast 540 621 26,000 -3,100 Descending Edmonton Center
Mon 04:52:38 PM 50.6167 -115.2000 29° Northeast 520 598 22,900 -3,327 Descending Edmonton Center
Mon 04:53:19 PM 50.6667 -114.9833 70° East 510 587 20,400 -3,208 Descending Vancouver Center
Mon 04:54:19 PM 50.7000 -114.8000 74° East 490 564 17,500 -2,734 Descending Vancouver Center
Mon 04:54:38 PM 50.7167 -114.7833 32° Northeast 470 541 16,800 -1,823 Descending Edmonton Center
Mon 04:55:38 PM 50.7333 -114.6000 82° East 420 483 15,100 -1,300 Descending Edmonton Center
Mon 04:56:38 PM 50.7500 -114.4500 80° East 350 403 14,200 -900 Descending Edmonton Center
Mon 04:57:38 PM 50.7500 -114.2833 90° East 330 380 13,300 -1,400 Descending Edmonton Center
Mon 04:58:38 PM 50.7333 -114.1500 101° East 320 368 11,400 -1,750 Descending Edmonton Center
Mon 04:59:38 PM 50.7333 -114.0167 90° East 310 357 9,800 -1,600 Descending Edmonton Center
Mon 05:00:38 PM 50.7333 -113.8833 90° East 290 334 8,200 -900 Descending Edmonton Center
Mon 05:01:38 PM 50.7667 -113.7833 62° Northeast 250 288 8,000 -500 Descending Edmonton Center
Mon 05:02:38 PM 50.8167 -113.7167 40° Northeast 230 265 7,200 -900 Descending Edmonton Center
Mon 05:03:38 PM 50.8833 -113.6667 25° Northeast 230 265 6,200 -600 Descending Edmonton Center
Mon 05:04:38 PM 50.9333 -113.6833 348° North 210 242 6,000 -100 Descending Edmonton Center
Mon 05:05:38 PM 50.9667 -113.7333 317° Northwest 200 230 6,000  Level Edmonton Center
Mon 05:06:38 PM 51.0000 -113.8000 308° West 190 219 6,000 -150 Level Edmonton Center
Mon 05:07:38 PM 51.0333 -113.8833 302° West 170 196 5,700 -550 Descending Edmonton Center
Mon 05:08:38 PM 51.0500 -113.9500 292° West 140 161 4,900 -800 Descending Edmonton Center

Login

Don't have an account? Register now (free) for customized features, flight alerts, and more!